SAS58E EKCH-EHAM
Flight info
| Callsign | SAS58E |
|---|---|
| Flight time | 1h 0m |
| Altitude | 38000 |
| Route | LANGO M611 ALASA DCT WANZA N872 KUBAT T200 BLUFA |
| Aircraft | A320/M-SDE3FGHIRWY/LB1 |
Departure
| Time | 2026-05-03 20:45 |
|---|---|
| Airport | Copenhagen Kastrup Airport (EKCH) |
Arrival
| Time | 2026-05-03 21:46 |
|---|---|
| Airport | Amsterdam Airport Schiphol (EHAM) |
| Time | Latitude | Longitude | Altitude | Speed | Heading |
|---|---|---|---|---|---|
| 2026-05-03 20:15 | 55.62882 | 12.64000 | 24 ft | 0 kts | 12° |
| 2026-05-03 20:35 | 55.62877 | 12.63998 | 24 ft | 4 kts | 12° |
| 2026-05-03 20:35 | 55.62852 | 12.63989 | 34 ft | 2 kts | 12° |
| 2026-05-03 20:35 | 55.62830 | 12.63981 | 24 ft | 4 kts | 12° |
| 2026-05-03 20:36 | 55.62804 | 12.63970 | 25 ft | 4 kts | 14° |
| 2026-05-03 20:36 | 55.62778 | 12.63956 | 28 ft | 4 kts | 27° |
| 2026-05-03 20:36 | 55.62760 | 12.63936 | 26 ft | 4 kts | 33° |
| 2026-05-03 20:36 | 55.62737 | 12.63910 | 27 ft | 4 kts | 33° |
| 2026-05-03 20:37 | 55.62715 | 12.63884 | 26 ft | 4 kts | 33° |
| 2026-05-03 20:37 | 55.62694 | 12.63861 | 25 ft | 2 kts | 33° |
| 2026-05-03 20:37 | 55.62674 | 12.63833 | 26 ft | 4 kts | 55° |
| 2026-05-03 20:37 | 55.62666 | 12.63793 | 27 ft | 3 kts | 94° |
| 2026-05-03 20:38 | 55.62668 | 12.63750 | 25 ft | 4 kts | 95° |
| 2026-05-03 20:38 | 55.62670 | 12.63703 | 24 ft | 3 kts | 95° |
| 2026-05-03 20:38 | 55.62671 | 12.63696 | 24 ft | 1 kts | 95° |
| 2026-05-03 20:41 | 55.62670 | 12.63712 | 24 ft | 3 kts | 95° |
| 2026-05-03 20:41 | 55.62668 | 12.63760 | 24 ft | 5 kts | 95° |
| 2026-05-03 20:41 | 55.62641 | 12.63796 | 24 ft | 6 kts | 186° |
| 2026-05-03 20:41 | 55.62591 | 12.63769 | 24 ft | 9 kts | 190° |
| 2026-05-03 20:42 | 55.62508 | 12.63785 | 23 ft | 15 kts | 162° |
| 2026-05-03 20:42 | 55.62419 | 12.63910 | 21 ft | 18 kts | 120° |
| 2026-05-03 20:42 | 55.62343 | 12.64115 | 20 ft | 21 kts | 123° |
| 2026-05-03 20:42 | 55.62259 | 12.64339 | 22 ft | 17 kts | 124° |
| 2026-05-03 20:43 | 55.62172 | 12.64321 | 23 ft | 14 kts | 206° |
| 2026-05-03 20:43 | 55.62080 | 12.64242 | 24 ft | 16 kts | 205° |
| 2026-05-03 20:43 | 55.61974 | 12.64154 | 24 ft | 18 kts | 205° |
| 2026-05-03 20:43 | 55.61849 | 12.64071 | 24 ft | 20 kts | 181° |
| 2026-05-03 20:44 | 55.61703 | 12.64088 | 25 ft | 22 kts | 176° |
| 2026-05-03 20:44 | 55.61576 | 12.63994 | 29 ft | 23 kts | 221° |
| 2026-05-03 20:44 | 55.61369 | 12.63671 | 26 ft | 72 kts | 221° |
| 2026-05-03 20:44 | 55.60827 | 12.62834 | 24 ft | 132 kts | 221° |
| 2026-05-03 20:45 | 55.60027 | 12.61601 | 250 ft | 155 kts | 219° |
| 2026-05-03 20:45 | 55.59215 | 12.60368 | 927 ft | 155 kts | 220° |
| 2026-05-03 20:45 | 55.58385 | 12.59105 | 1423 ft | 166 kts | 218° |
| 2026-05-03 20:45 | 55.57454 | 12.57674 | 1700 ft | 189 kts | 219° |
| 2026-05-03 20:46 | 55.56475 | 12.55927 | 1981 ft | 212 kts | 232° |
| 2026-05-03 20:46 | 55.55600 | 12.53677 | 2395 ft | 231 kts | 235° |
| 2026-05-03 20:46 | 55.54747 | 12.51173 | 3004 ft | 247 kts | 237° |
| 2026-05-03 20:46 | 55.53874 | 12.48515 | 3834 ft | 252 kts | 237° |
| 2026-05-03 20:47 | 55.52993 | 12.45854 | 4860 ft | 250 kts | 236° |
| 2026-05-03 20:47 | 55.52104 | 12.43218 | 5883 ft | 249 kts | 236° |
| 2026-05-03 20:47 | 55.51200 | 12.40578 | 6547 ft | 252 kts | 236° |
| 2026-05-03 20:47 | 55.50286 | 12.37939 | 6995 ft | 253 kts | 236° |
| 2026-05-03 20:48 | 55.49365 | 12.35290 | 7934 ft | 253 kts | 236° |
| 2026-05-03 20:48 | 55.48436 | 12.32635 | 8840 ft | 255 kts | 236° |
| 2026-05-03 20:48 | 55.47510 | 12.30004 | 9725 ft | 258 kts | 236° |
| 2026-05-03 20:48 | 55.46535 | 12.27251 | 10185 ft | 275 kts | 236° |
| 2026-05-03 20:49 | 55.45478 | 12.24281 | 10505 ft | 294 kts | 236° |
| 2026-05-03 20:49 | 55.44379 | 12.21177 | 11132 ft | 301 kts | 236° |
| 2026-05-03 20:49 | 55.43267 | 12.18026 | 11849 ft | 305 kts | 237° |
| 2026-05-03 20:49 | 55.42143 | 12.14840 | 12584 ft | 308 kts | 237° |
| 2026-05-03 20:50 | 55.41007 | 12.11625 | 13335 ft | 311 kts | 237° |
| 2026-05-03 20:50 | 55.39853 | 12.08377 | 14011 ft | 314 kts | 237° |
| 2026-05-03 20:50 | 55.38683 | 12.05100 | 14650 ft | 318 kts | 237° |
| 2026-05-03 20:50 | 55.37499 | 12.01788 | 15277 ft | 321 kts | 237° |
| 2026-05-03 20:51 | 55.36319 | 11.98486 | 15891 ft | 325 kts | 237° |
| 2026-05-03 20:51 | 55.35111 | 11.95107 | 16502 ft | 328 kts | 237° |
| 2026-05-03 20:51 | 55.33888 | 11.91687 | 17125 ft | 332 kts | 237° |
| 2026-05-03 20:51 | 55.32653 | 11.88234 | 17742 ft | 335 kts | 237° |
| 2026-05-03 20:52 | 55.31402 | 11.84751 | 18338 ft | 339 kts | 237° |
| 2026-05-03 20:52 | 55.30138 | 11.81233 | 18887 ft | 342 kts | 237° |
| 2026-05-03 20:52 | 55.28859 | 11.77686 | 19462 ft | 345 kts | 237° |
| 2026-05-03 20:52 | 55.27565 | 11.74110 | 20050 ft | 348 kts | 237° |
| 2026-05-03 20:53 | 55.26265 | 11.70507 | 20625 ft | 351 kts | 237° |
| 2026-05-03 20:53 | 55.24953 | 11.66868 | 21175 ft | 354 kts | 237° |
| 2026-05-03 20:53 | 55.23625 | 11.63215 | 21733 ft | 357 kts | 236° |
| 2026-05-03 20:53 | 55.22274 | 11.59539 | 22265 ft | 360 kts | 236° |
| 2026-05-03 20:54 | 55.20903 | 11.55839 | 22805 ft | 363 kts | 236° |
| 2026-05-03 20:54 | 55.18119 | 11.48367 | 23821 ft | 369 kts | 236° |
| 2026-05-03 20:54 | 55.16726 | 11.44624 | 24267 ft | 372 kts | 236° |
| 2026-05-03 20:55 | 55.15311 | 11.40817 | 24720 ft | 374 kts | 236° |
| 2026-05-03 20:55 | 55.13889 | 11.36992 | 25159 ft | 376 kts | 236° |
| 2026-05-03 20:55 | 55.12458 | 11.33146 | 25596 ft | 379 kts | 236° |
| 2026-05-03 20:55 | 55.11016 | 11.29278 | 26018 ft | 381 kts | 236° |
| 2026-05-03 20:56 | 55.09565 | 11.25395 | 26437 ft | 383 kts | 236° |
| 2026-05-03 20:56 | 55.08098 | 11.21481 | 26851 ft | 385 kts | 236° |
| 2026-05-03 20:56 | 55.06626 | 11.17556 | 27253 ft | 387 kts | 236° |
| 2026-05-03 20:56 | 55.05142 | 11.13611 | 27646 ft | 390 kts | 235° |
| 2026-05-03 20:57 | 55.03650 | 11.09654 | 28039 ft | 392 kts | 235° |
| 2026-05-03 20:57 | 55.02166 | 11.05726 | 28421 ft | 394 kts | 235° |
| 2026-05-03 20:57 | 55.00649 | 11.01716 | 28778 ft | 397 kts | 236° |
| 2026-05-03 20:57 | 54.99129 | 10.97694 | 29152 ft | 399 kts | 236° |
| 2026-05-03 20:58 | 54.97600 | 10.93647 | 29586 ft | 400 kts | 234° |
| 2026-05-03 20:58 | 54.96073 | 10.89602 | 30039 ft | 400 kts | 234° |
| 2026-05-03 20:58 | 54.94721 | 10.85355 | 30394 ft | 404 kts | 244° |
| 2026-05-03 20:58 | 54.93823 | 10.80684 | 30728 ft | 410 kts | 252° |
| 2026-05-03 20:59 | 54.93113 | 10.75881 | 31065 ft | 411 kts | 251° |
| 2026-05-03 20:59 | 54.92398 | 10.71079 | 31534 ft | 409 kts | 251° |
| 2026-05-03 20:59 | 54.91683 | 10.66306 | 32012 ft | 407 kts | 251° |
| 2026-05-03 20:59 | 54.91209 | 10.63164 | 32332 ft | 405 kts | 251° |
| 2026-05-03 21:00 | 54.90492 | 10.58445 | 32814 ft | 403 kts | 251° |
| 2026-05-03 21:00 | 54.90017 | 10.55329 | 33135 ft | 402 kts | 251° |
| 2026-05-03 21:00 | 54.89061 | 10.49061 | 33795 ft | 399 kts | 251° |
| 2026-05-03 21:00 | 54.88349 | 10.44410 | 34208 ft | 398 kts | 251° |
| 2026-05-03 21:01 | 54.87637 | 10.39771 | 34576 ft | 397 kts | 251° |
| 2026-05-03 21:01 | 54.86925 | 10.35139 | 34916 ft | 396 kts | 251° |
| 2026-05-03 21:01 | 54.86212 | 10.30511 | 35249 ft | 396 kts | 251° |
| 2026-05-03 21:01 | 54.85498 | 10.25896 | 35568 ft | 396 kts | 252° |
| 2026-05-03 21:02 | 54.84783 | 10.21284 | 35885 ft | 396 kts | 252° |
| 2026-05-03 21:02 | 54.84066 | 10.16676 | 36188 ft | 395 kts | 252° |
| 2026-05-03 21:02 | 54.83346 | 10.12073 | 36436 ft | 396 kts | 252° |
| 2026-05-03 21:02 | 54.82622 | 10.07458 | 36678 ft | 397 kts | 252° |
| 2026-05-03 21:03 | 54.81897 | 10.02832 | 36946 ft | 397 kts | 252° |
| 2026-05-03 21:03 | 54.81140 | 9.98226 | 37219 ft | 396 kts | 248° |
| 2026-05-03 21:03 | 54.80022 | 9.93887 | 37483 ft | 394 kts | 239° |
| 2026-05-03 21:03 | 54.78578 | 9.89846 | 37737 ft | 394 kts | 237° |
| 2026-05-03 21:04 | 54.77134 | 9.85876 | 37844 ft | 395 kts | 237° |
| 2026-05-03 21:04 | 54.75667 | 9.81842 | 37860 ft | 396 kts | 237° |
| 2026-05-03 21:04 | 54.72726 | 9.73761 | 37856 ft | 398 kts | 237° |
| 2026-05-03 21:05 | 54.69766 | 9.65633 | 37859 ft | 400 kts | 237° |
| 2026-05-03 21:05 | 54.66788 | 9.57501 | 37861 ft | 400 kts | 237° |
| 2026-05-03 21:06 | 54.63795 | 9.49383 | 37864 ft | 400 kts | 236° |
| 2026-05-03 21:06 | 54.60813 | 9.41321 | 37849 ft | 402 kts | 237° |
| 2026-05-03 21:07 | 54.57807 | 9.33178 | 37848 ft | 402 kts | 237° |
| 2026-05-03 21:07 | 54.54791 | 9.25046 | 37863 ft | 403 kts | 236° |
| 2026-05-03 21:08 | 54.51761 | 9.16921 | 37869 ft | 403 kts | 236° |
| 2026-05-03 21:08 | 54.48721 | 9.08784 | 37889 ft | 404 kts | 236° |
| 2026-05-03 21:09 | 54.45673 | 9.00655 | 37886 ft | 404 kts | 236° |
| 2026-05-03 21:09 | 54.42633 | 8.92586 | 37877 ft | 405 kts | 236° |
| 2026-05-03 21:10 | 54.39577 | 8.84473 | 37880 ft | 405 kts | 236° |
| 2026-05-03 21:10 | 54.36515 | 8.76372 | 37878 ft | 405 kts | 236° |
| 2026-05-03 21:11 | 54.33440 | 8.68286 | 37888 ft | 404 kts | 236° |
| 2026-05-03 21:11 | 54.30361 | 8.60228 | 37888 ft | 404 kts | 236° |
| 2026-05-03 21:12 | 54.27280 | 8.52156 | 37917 ft | 404 kts | 236° |
| 2026-05-03 21:12 | 54.24195 | 8.44134 | 37909 ft | 404 kts | 236° |
| 2026-05-03 21:13 | 54.20633 | 8.36774 | 37890 ft | 402 kts | 224° |
| 2026-05-03 21:13 | 54.16570 | 8.30194 | 37885 ft | 402 kts | 224° |
| 2026-05-03 21:14 | 54.12508 | 8.23626 | 37897 ft | 402 kts | 224° |
| 2026-05-03 21:14 | 54.08438 | 8.17069 | 37901 ft | 402 kts | 224° |
| 2026-05-03 21:15 | 54.04400 | 8.10561 | 37905 ft | 402 kts | 224° |
| 2026-05-03 21:15 | 54.00331 | 8.04011 | 37903 ft | 402 kts | 224° |
| 2026-05-03 21:16 | 53.96255 | 7.97468 | 37902 ft | 402 kts | 224° |
| 2026-05-03 21:16 | 53.92179 | 7.90946 | 37904 ft | 403 kts | 224° |
| 2026-05-03 21:17 | 53.88785 | 7.85530 | 37927 ft | 403 kts | 224° |
| 2026-05-03 21:17 | 53.84008 | 7.77928 | 37926 ft | 403 kts | 224° |
| 2026-05-03 21:18 | 53.79918 | 7.71453 | 37928 ft | 402 kts | 224° |
| 2026-05-03 21:18 | 53.75826 | 7.64998 | 37929 ft | 402 kts | 224° |
| 2026-05-03 21:19 | 53.71759 | 7.58589 | 37922 ft | 402 kts | 223° |
| 2026-05-03 21:19 | 53.67666 | 7.52144 | 37932 ft | 402 kts | 223° |
| 2026-05-03 21:20 | 53.63581 | 7.45729 | 37925 ft | 401 kts | 223° |
| 2026-05-03 21:20 | 53.59479 | 7.39337 | 37924 ft | 401 kts | 223° |
| 2026-05-03 21:21 | 53.55373 | 7.32945 | 37927 ft | 401 kts | 223° |
| 2026-05-03 21:21 | 53.51278 | 7.26575 | 37916 ft | 401 kts | 223° |
| 2026-05-03 21:22 | 53.47174 | 7.20219 | 37747 ft | 404 kts | 223° |
| 2026-05-03 21:22 | 53.45107 | 7.17026 | 37197 ft | 403 kts | 223° |
| 2026-05-03 21:22 | 53.43071 | 7.13879 | 36680 ft | 402 kts | 223° |
| 2026-05-03 21:23 | 53.41020 | 7.10715 | 36164 ft | 400 kts | 223° |
| 2026-05-03 21:23 | 53.38973 | 7.07564 | 35659 ft | 398 kts | 223° |
| 2026-05-03 21:23 | 53.36935 | 7.04435 | 35071 ft | 398 kts | 223° |
| 2026-05-03 21:23 | 53.34899 | 7.01306 | 34637 ft | 394 kts | 222° |
| 2026-05-03 21:24 | 53.32884 | 6.98260 | 34331 ft | 387 kts | 221° |
| 2026-05-03 21:24 | 53.30837 | 6.95383 | 34022 ft | 381 kts | 219° |
| 2026-05-03 21:24 | 53.28782 | 6.92643 | 33683 ft | 375 kts | 218° |
| 2026-05-03 21:24 | 53.26736 | 6.89983 | 33324 ft | 371 kts | 218° |
| 2026-05-03 21:25 | 53.24701 | 6.87348 | 32973 ft | 368 kts | 218° |
| 2026-05-03 21:25 | 53.22689 | 6.84729 | 32624 ft | 365 kts | 219° |
| 2026-05-03 21:25 | 53.20724 | 6.82146 | 32284 ft | 363 kts | 219° |
| 2026-05-03 21:25 | 53.18728 | 6.79501 | 31939 ft | 361 kts | 219° |
| 2026-05-03 21:26 | 53.16798 | 6.76934 | 31608 ft | 359 kts | 219° |
| 2026-05-03 21:26 | 53.14853 | 6.74347 | 31274 ft | 356 kts | 219° |
| 2026-05-03 21:26 | 53.12919 | 6.71780 | 30950 ft | 354 kts | 219° |
| 2026-05-03 21:26 | 53.10998 | 6.69233 | 30625 ft | 352 kts | 219° |
| 2026-05-03 21:27 | 53.09082 | 6.66696 | 30303 ft | 350 kts | 219° |
| 2026-05-03 21:27 | 53.07181 | 6.64182 | 29987 ft | 348 kts | 219° |
| 2026-05-03 21:27 | 53.05288 | 6.61683 | 29631 ft | 346 kts | 219° |
| 2026-05-03 21:27 | 53.03405 | 6.59204 | 29254 ft | 344 kts | 220° |
| 2026-05-03 21:28 | 53.01532 | 6.56741 | 28881 ft | 343 kts | 220° |
| 2026-05-03 21:28 | 52.99669 | 6.54293 | 28534 ft | 341 kts | 220° |
| 2026-05-03 21:28 | 52.97811 | 6.51856 | 28178 ft | 340 kts | 220° |
| 2026-05-03 21:28 | 52.95958 | 6.49428 | 27831 ft | 338 kts | 219° |
| 2026-05-03 21:29 | 52.94115 | 6.47018 | 27486 ft | 337 kts | 219° |
| 2026-05-03 21:29 | 52.92270 | 6.44614 | 27147 ft | 336 kts | 219° |
| 2026-05-03 21:29 | 52.90433 | 6.42223 | 26806 ft | 335 kts | 219° |
| 2026-05-03 21:29 | 52.88603 | 6.39844 | 26468 ft | 334 kts | 219° |
| 2026-05-03 21:30 | 52.86780 | 6.37469 | 26139 ft | 333 kts | 219° |
| 2026-05-03 21:30 | 52.84966 | 6.35102 | 25919 ft | 331 kts | 220° |
| 2026-05-03 21:30 | 52.83324 | 6.32521 | 25915 ft | 331 kts | 231° |
| 2026-05-03 21:30 | 52.81940 | 6.29431 | 25359 ft | 340 kts | 234° |
| 2026-05-03 21:31 | 52.80569 | 6.26189 | 24620 ft | 348 kts | 235° |
| 2026-05-03 21:31 | 52.79183 | 6.22861 | 23908 ft | 355 kts | 235° |
| 2026-05-03 21:31 | 52.77770 | 6.19459 | 23154 ft | 362 kts | 235° |
| 2026-05-03 21:31 | 52.76327 | 6.15997 | 22329 ft | 368 kts | 235° |
| 2026-05-03 21:32 | 52.74859 | 6.12496 | 21536 ft | 373 kts | 235° |
| 2026-05-03 21:32 | 52.73371 | 6.08965 | 20751 ft | 376 kts | 235° |
| 2026-05-03 21:32 | 52.71868 | 6.05416 | 19993 ft | 379 kts | 235° |
| 2026-05-03 21:32 | 52.70354 | 6.01848 | 19258 ft | 380 kts | 235° |
| 2026-05-03 21:33 | 52.68837 | 5.98281 | 18534 ft | 376 kts | 235° |
| 2026-05-03 21:33 | 52.67361 | 5.94812 | 17769 ft | 363 kts | 235° |
| 2026-05-03 21:33 | 52.65936 | 5.91467 | 16961 ft | 351 kts | 235° |
| 2026-05-03 21:33 | 52.64550 | 5.88222 | 16039 ft | 343 kts | 235° |
| 2026-05-03 21:34 | 52.63210 | 5.85088 | 15190 ft | 336 kts | 235° |
| 2026-05-03 21:34 | 52.61879 | 5.81970 | 14322 ft | 330 kts | 235° |
| 2026-05-03 21:34 | 52.60575 | 5.78908 | 13451 ft | 325 kts | 235° |
| 2026-05-03 21:34 | 52.59283 | 5.75884 | 12530 ft | 320 kts | 235° |
| 2026-05-03 21:35 | 52.58009 | 5.72910 | 11677 ft | 316 kts | 235° |
| 2026-05-03 21:35 | 52.56776 | 5.70044 | 11289 ft | 298 kts | 235° |
| 2026-05-03 21:35 | 52.55611 | 5.67337 | 10917 ft | 283 kts | 234° |
| 2026-05-03 21:35 | 52.54486 | 5.64729 | 10550 ft | 277 kts | 234° |
| 2026-05-03 21:36 | 52.53377 | 5.62156 | 10213 ft | 275 kts | 235° |
| 2026-05-03 21:36 | 52.52275 | 5.59601 | 9964 ft | 275 kts | 234° |
| 2026-05-03 21:36 | 52.51175 | 5.57041 | 9814 ft | 273 kts | 237° |
| 2026-05-03 21:36 | 52.50211 | 5.54354 | 9520 ft | 273 kts | 240° |
| 2026-05-03 21:37 | 52.49262 | 5.51656 | 9128 ft | 273 kts | 240° |
| 2026-05-03 21:37 | 52.48313 | 5.48961 | 8740 ft | 272 kts | 240° |
| 2026-05-03 21:37 | 52.47366 | 5.46275 | 8370 ft | 271 kts | 240° |
| 2026-05-03 21:37 | 52.46421 | 5.43597 | 8018 ft | 270 kts | 239° |
| 2026-05-03 21:38 | 52.45477 | 5.40934 | 7644 ft | 270 kts | 239° |
| 2026-05-03 21:38 | 52.44552 | 5.38326 | 7272 ft | 269 kts | 239° |
| 2026-05-03 21:38 | 52.43614 | 5.35687 | 6990 ft | 266 kts | 239° |
| 2026-05-03 21:38 | 52.42694 | 5.33097 | 6482 ft | 262 kts | 240° |
| 2026-05-03 21:39 | 52.41786 | 5.30546 | 5998 ft | 257 kts | 239° |
| 2026-05-03 21:39 | 52.40885 | 5.28024 | 5593 ft | 256 kts | 240° |
| 2026-05-03 21:39 | 52.39981 | 5.25490 | 5205 ft | 258 kts | 239° |
| 2026-05-03 21:39 | 52.39071 | 5.22946 | 4817 ft | 259 kts | 240° |
| 2026-05-03 21:40 | 52.38162 | 5.20406 | 4484 ft | 258 kts | 240° |
| 2026-05-03 21:40 | 52.37252 | 5.17868 | 4142 ft | 257 kts | 239° |
| 2026-05-03 21:40 | 52.36349 | 5.15347 | 3696 ft | 259 kts | 240° |
| 2026-05-03 21:40 | 52.35430 | 5.12786 | 3302 ft | 261 kts | 240° |
| 2026-05-03 21:41 | 52.34535 | 5.10292 | 3229 ft | 248 kts | 239° |
| 2026-05-03 21:41 | 52.33682 | 5.07914 | 3138 ft | 234 kts | 240° |
| 2026-05-03 21:41 | 52.32916 | 5.05709 | 3034 ft | 213 kts | 246° |
| 2026-05-03 21:41 | 52.32605 | 5.03444 | 2845 ft | 199 kts | 265° |
| 2026-05-03 21:42 | 52.32537 | 5.01240 | 2640 ft | 190 kts | 265° |
| 2026-05-03 21:42 | 52.32472 | 4.99110 | 2364 ft | 185 kts | 265° |
| 2026-05-03 21:42 | 52.32408 | 4.97093 | 2117 ft | 171 kts | 265° |
| 2026-05-03 21:42 | 52.32350 | 4.95243 | 1918 ft | 151 kts | 265° |
| 2026-05-03 21:43 | 52.32297 | 4.93613 | 1719 ft | 138 kts | 265° |
| 2026-05-03 21:43 | 52.32247 | 4.92088 | 1531 ft | 133 kts | 265° |
| 2026-05-03 21:43 | 52.32198 | 4.90594 | 1351 ft | 131 kts | 265° |
| 2026-05-03 21:43 | 52.32150 | 4.89130 | 1177 ft | 130 kts | 265° |
| 2026-05-03 21:44 | 52.32101 | 4.87659 | 1001 ft | 129 kts | 265° |
| 2026-05-03 21:44 | 52.32054 | 4.86196 | 823 ft | 130 kts | 266° |
| 2026-05-03 21:44 | 52.32006 | 4.84722 | 650 ft | 131 kts | 266° |
| 2026-05-03 21:44 | 52.31954 | 4.83231 | 478 ft | 131 kts | 266° |
| 2026-05-03 21:45 | 52.31906 | 4.81736 | 307 ft | 131 kts | 266° |
| 2026-05-03 21:45 | 52.31857 | 4.80249 | 134 ft | 131 kts | 265° |
| 2026-05-03 21:45 | 52.31822 | 4.79258 | 15 ft | 131 kts | 265° |
| 2026-05-03 21:45 | 52.31777 | 4.77961 | -1 ft | 94 kts | 266° |
| 2026-05-03 21:46 | 52.31750 | 4.77178 | -2 ft | 47 kts | 266° |
| 2026-05-03 21:46 | 52.31638 | 4.76758 | -1 ft | 30 kts | 237° |
| 2026-05-03 21:46 | 52.31550 | 4.76534 | -1 ft | 7 kts | 246° |
| 2026-05-03 21:46 | 52.31547 | 4.76470 | -1 ft | 9 kts | 268° |
| 2026-05-03 21:47 | 52.31541 | 4.76320 | -1 ft | 18 kts | 266° |
| 2026-05-03 21:47 | 52.31532 | 4.76063 | -1 ft | 27 kts | 266° |
| 2026-05-03 21:47 | 52.31522 | 4.75750 | -1 ft | 24 kts | 266° |
| 2026-05-03 21:47 | 52.31515 | 4.75543 | -1 ft | 16 kts | 267° |
| 2026-05-03 21:48 | 52.31472 | 4.75406 | -1 ft | 15 kts | 192° |
| 2026-05-03 21:48 | 52.31437 | 4.75408 | -1 ft | 4 kts | 172° |
| 2026-05-03 21:48 | 52.31398 | 4.75414 | -1 ft | 8 kts | 176° |
| 2026-05-03 21:48 | 52.31330 | 4.75420 | -1 ft | 11 kts | 177° |
| 2026-05-03 21:49 | 52.31243 | 4.75427 | -1 ft | 14 kts | 177° |
| 2026-05-03 21:49 | 52.31141 | 4.75434 | -1 ft | 16 kts | 189° |
| 2026-05-03 21:49 | 52.31061 | 4.75310 | -1 ft | 15 kts | 211° |
| 2026-05-03 21:49 | 52.30985 | 4.75278 | -1 ft | 7 kts | 151° |
| 2026-05-03 21:50 | 52.30967 | 4.75298 | -1 ft | 2 kts | 147° |
| 2026-05-03 21:50 | 52.30962 | 4.75303 | -1 ft | 0 kts | 147° |